Time;durP1;ratioP1;P1;durP2;ratioP2;P2;SDS_P1;SDS_P2;PMS_P1;PMS_P2;Temp;Humidity;BMP_temperature;BMP_pressure;BME280_temperature;BME280_humidity;BME280_pressure;Samples;Min_cycle;Max_cycle;Signal;HPM_P1;HPM_P2
2024/03/30 06:37:07;;;;;;;0.20;0.20;;;;;;;20.46;38.93;76079.66;5554291;23;20039;-89
2024/03/30 06:44:49;;;;;;;0.20;0.20;;;;;;;20.91;34.55;76133.78;5316656;23;20426;-89
2024/03/30 07:51:50;;;;;;;0.13;0.13;;;;;;;23.13;26.60;76383.75;5564795;23;20336;-90
2024/03/30 07:59:30;;;;;;;0.10;0.10;;;;;;;23.97;25.58;76492.22;5082923;23;20403;-90
2024/03/30 08:01:58;;;;;;;0.10;0.10;;;;;;;23.76;25.35;76464.69;4947049;28;20042;-91
2024/03/30 08:04:24;;;;;;;0.20;0.20;;;;;;;23.91;25.39;76484.97;4962266;28;20029;-91
2024/03/30 08:06:51;;;;;;;0.10;0.10;;;;;;;24.87;24.93;76595.44;4961751;28;20418;-90
2024/03/30 08:09:18;;;;;;;0.20;0.20;;;;;;;25.57;24.05;76675.25;4962567;28;20474;-88
2024/03/30 08:11:44;;;;;;;0.20;0.20;;;;;;;24.48;24.90;76549.06;4962238;28;20030;-91
2024/03/30 08:14:10;;;;;;;0.20;0.20;;;;;;;24.21;25.53;76517.09;4962354;28;20030;-91
2024/03/30 08:16:35;;;;;;;0.10;0.10;;;;;;;24.75;24.79;76578.16;4962108;28;20169;-91
2024/03/30 08:19:03;;;;;;;0.20;0.20;;;;;;;24.16;23.47;76508.25;4965714;28;20050;-92
2024/03/30 08:21:32;;;;;;;0.20;0.20;;;;;;;24.29;23.08;76529.56;4969096;28;20058;-90
2024/03/30 08:23:58;;;;;;;0.20;0.20;;;;;;;24.71;22.46;76582.44;4978849;28;20122;-90
2024/03/30 08:26:23;;;;;;;0.20;0.20;;;;;;;24.80;23.29;76589.84;4962290;28;20109;-91
2024/03/30 08:28:49;;;;;;;0.10;0.10;;;;;;;24.85;22.79;76595.88;4961742;28;20059;-90
2024/03/30 08:31:16;;;;;;;0.20;0.20;;;;;;;24.81;22.62;76593.88;4961236;28;20058;-91
2024/03/30 08:39:03;;;;;;;0.20;0.20;;;;;;;25.38;22.10;76655.75;5066751;23;20055;-90
2024/03/30 08:41:28;;;;;;;0.10;0.10;;;;;;;25.40;22.50;76660.41;4962592;28;20045;-90
2024/03/30 08:43:54;;;;;;;0.20;0.20;;;;;;;25.87;22.43;76716.50;4961892;28;20546;-90
2024/03/30 08:46:19;;;;;;;0.20;0.20;;;;;;;25.60;22.51;76685.13;4961478;28;20035;-90
2024/03/30 08:48:45;;;;;;;0.20;0.20;;;;;;;25.00;22.17;76613.97;4963044;28;20134;-91
2024/03/30 08:51:10;;;;;;;0.20;0.20;;;;;;;25.27;21.91;76639.69;4962997;28;20038;-92
2024/03/30 08:53:36;;;;;;;0.20;0.20;;;;;;;24.55;22.69;76558.09;4965421;28;20027;-90
2024/03/30 09:37:14;;;;;;;0.10;0.10;;;;;;;25.06;20.91;76617.78;5200045;23;20085;-90
2024/03/30 09:39:40;;;;;;;0.10;0.10;;;;;;;25.47;20.21;76663.78;4941268;29;20074;-91
2024/03/30 09:42:15;;;;;;;0.20;0.20;;;;;;;26.27;19.88;76763.56;4958782;28;20133;-90
2024/03/30 09:44:42;;;;;;;0.10;0.10;;;;;;;26.30;18.61;76767.16;4940641;28;20035;-91
2024/03/30 09:47:08;;;;;;;0.10;0.10;;;;;;;26.86;18.15;76828.50;4940794;28;20137;-89
2024/03/30 09:49:34;;;;;;;0.20;0.20;;;;;;;27.33;17.90;76883.44;4941328;28;20063;-88
2024/03/30 09:52:03;;;;;;;0.10;0.10;;;;;;;26.47;18.90;76782.03;4940559;29;20027;-89
2024/03/30 10:04:50;;;;;;;0.20;0.20;;;;;;;25.50;19.89;76664.56;5336648;23;20055;-91
2024/03/30 10:07:21;;;;;;;0.10;0.10;;;;;;;26.09;18.65;76739.59;4978883;28;20085;-90
2024/03/30 10:09:51;;;;;;;0.10;0.10;;;;;;;26.23;19.30;76759.34;4980378;28;20132;-91
2024/03/30 10:12:32;;;;;;;0.10;0.10;;;;;;;26.74;19.19;76816.84;4979891;28;20054;-89
2024/03/30 10:15:04;;;;;;;0.15;0.15;;;;;;;26.77;17.58;76820.47;4980615;28;20092;-90
2024/03/30 10:17:30;;;;;;;0.20;0.20;;;;;;;26.44;18.54;76775.59;4980144;28;20030;-90
2024/03/30 10:19:58;;;;;;;0.10;0.10;;;;;;;26.03;18.50;76732.97;4978916;28;20516;-91
2024/03/30 10:22:23;;;;;;;0.20;0.20;;;;;;;25.67;19.44;76689.53;4978600;28;20189;-92
2024/03/30 10:24:53;;;;;;;0.10;0.10;;;;;;;24.77;19.91;76583.41;4980638;28;20070;-90
2024/03/30 10:29:57;;;;;;;0.10;0.10;;;;;;;25.79;20.26;76704.03;5037171;23;20058;-91
2024/03/30 10:32:24;;;;;;;0.20;0.20;;;;;;;25.36;19.83;76656.19;4966410;28;20034;-89
2024/03/30 10:34:52;;;;;;;0.20;0.20;;;;;;;25.24;19.65;76641.72;4995200;28;20035;-91
2024/03/30 11:24:03;;;;;;;0.20;0.20;;;;;;;24.26;20.02;76520.31;5954669;23;20194;-88
2024/03/30 11:29:32;;;;;;;0.20;0.20;;;;;;;24.43;19.24;76540.81;5000371;23;20059;-90
2024/03/30 11:32:12;;;;;;;0.10;0.10;;;;;;;24.67;19.56;76571.97;4959254;28;20030;-90
2024/03/30 11:43:05;;;;;;;0.17;0.17;;;;;;;24.46;19.83;76550.09;5938115;23;20055;-87
2024/03/30 11:45:34;;;;;;;0.20;0.20;;;;;;;23.93;19.24;76487.41;4967330;28;20053;-90
2024/03/30 11:50:39;;;;;;;0.13;0.13;;;;;;;24.15;19.69;76507.03;5576380;23;20058;-89
2024/03/30 11:53:15;;;;;;;0.13;0.13;;;;;;;24.74;19.60;76583.22;4961123;28;20026;-91
2024/03/30 11:55:42;;;;;;;0.20;0.20;;;;;;;24.83;19.92;76587.81;5051659;23;20507;-90
2024/03/30 11:58:08;;;;;;;0.20;0.20;;;;;;;24.14;19.26;76514.31;4983710;28;20055;-91
2024/03/30 12:00:47;;;;;;;0.20;0.20;;;;;;;24.27;19.20;76529.97;4970467;28;20023;-90
2024/03/30 12:03:12;;;;;;;0.20;0.20;;;;;;;24.41;18.93;76538.41;4987592;28;20026;-89
2024/03/30 12:05:47;;;;;;;0.20;0.20;;;;;;;24.71;18.90;76573.94;4974213;28;20062;-91
2024/03/30 12:08:16;;;;;;;0.20;0.20;;;;;;;25.02;19.26;76612.94;4974739;28;20033;-91
2024/03/30 12:10:58;;;;;;;0.20;0.20;;;;;;;25.18;18.85;76629.41;4961597;28;20041;-92
2024/03/30 12:13:27;;;;;;;0.10;0.10;;;;;;;24.86;18.36;76594.25;4977952;28;20038;-92
2024/03/30 12:15:55;;;;;;;0.10;0.10;;;;;;;24.89;18.62;76597.28;4977329;28;20101;-91
2024/03/30 12:18:21;;;;;;;0.10;0.10;;;;;;;24.98;18.69;76610.94;4975441;28;20090;-91
2024/03/30 12:20:48;;;;;;;0.20;0.20;;;;;;;24.82;17.83;76589.44;4976585;28;20022;-91
2024/03/30 12:23:15;;;;;;;0.10;0.10;;;;;;;24.42;18.15;76539.00;4974387;28;20031;-90
2024/03/30 12:25:42;;;;;;;0.10;0.10;;;;;;;24.70;18.46;76572.75;4979711;28;20031;-90
2024/03/30 12:28:09;;;;;;;0.10;0.10;;;;;;;24.94;18.12;76603.91;4978618;28;20027;-92
2024/03/30 12:30:51;;;;;;;0.13;0.13;;;;;;;24.67;18.38;76569.13;4978285;28;20050;-91
2024/03/30 12:33:16;;;;;;;0.10;0.10;;;;;;;25.13;18.48;76623.38;4978602;28;20023;-91
2024/03/30 12:35:43;;;;;;;0.10;0.10;;;;;;;24.91;18.87;76596.84;4979454;28;20109;-89
2024/03/30 12:38:15;;;;;;;0.20;0.20;;;;;;;24.96;18.26;76609.13;4981569;28;20027;-91
2024/03/30 12:40:45;;;;;;;0.10;0.10;;;;;;;25.53;18.62;76676.69;4977899;28;20034;-90
2024/03/30 12:43:14;;;;;;;0.10;0.10;;;;;;;25.04;18.27;76613.13;4977995;28;20363;-90
2024/03/30 12:45:41;;;;;;;0.13;0.13;;;;;;;24.89;18.77;76600.09;4959216;28;20027;-90
2024/03/30 12:48:07;;;;;;;0.10;0.10;;;;;;;24.89;18.66;76597.88;4958562;29;20071;-91
2024/03/30 12:50:33;;;;;;;0.10;0.10;;;;;;;24.84;19.74;76591.84;4958608;29;20027;-92
2024/03/30 12:53:00;;;;;;;0.10;0.10;;;;;;;24.93;19.91;76599.25;4958772;29;20031;-90
2024/03/30 12:55:26;;;;;;;0.10;0.10;;;;;;;25.00;19.58;76610.53;4974403;28;20440;-90
2024/03/30 12:57:52;;;;;;;0.10;0.10;;;;;;;24.60;20.12;76560.69;4977588;28;20038;-91
2024/03/30 13:00:18;;;;;;;0.10;0.10;;;;;;;24.72;19.78;76574.56;4975570;28;20129;-91
2024/03/30 13:02:53;;;;;;;0.20;0.20;;;;;;;24.72;19.90;76574.56;4976803;28;20041;-90
2024/03/30 13:05:20;;;;;;;0.10;0.10;;;;;;;24.70;20.28;76574.97;4977180;28;20463;-91
2024/03/30 13:07:46;;;;;;;0.13;0.13;;;;;;;24.75;20.30;76583.81;4977526;28;20125;-89
2024/03/30 13:10:14;;;;;;;0.20;0.20;;;;;;;24.37;21.12;76533.56;4990535;28;20019;-89
2024/03/30 13:12:40;;;;;;;0.20;0.20;;;;;;;24.22;20.92;76521.13;4980836;28;20027;-89
2024/03/30 15:41:54;;;;;;;0.20;0.20;;;;;;;22.48;29.09;76315.72;5239166;23;20629;-90
2024/03/30 15:44:19;;;;;;;0.17;0.17;;;;;;;22.25;29.32;76288.63;4978155;28;20033;-90
2024/03/30 15:57:08;;;;;;;0.20;0.20;;;;;;;22.02;30.45;76258.13;5002350;23;20062;-88
2024/03/30 16:02:39;;;;;;;0.20;0.20;;;;;;;21.93;30.54;76251.28;5116497;23;20069;-90
2024/03/30 16:05:08;;;;;;;0.20;0.20;;;;;;;22.01;30.54;76260.34;4948340;28;20045;-91
2024/03/30 16:10:20;;;;;;;0.20;0.20;;;;;;;22.02;30.74;76258.72;5369300;23;20063;-90
2024/03/30 16:12:46;;;;;;;0.20;0.20;;;;;;;21.97;30.55;76253.31;4962070;28;20078;-90
2024/03/30 16:15:11;;;;;;;0.20;0.20;;;;;;;21.77;30.83;76232.03;4962013;28;20031;-90
2024/03/30 16:17:36;;;;;;;0.20;0.20;;;;;;;21.86;31.00;76242.28;4960867;28;20034;-89
2024/03/30 16:20:07;;;;;;;0.20;0.20;;;;;;;21.79;30.68;76237.28;4960764;28;20027;-91
2024/03/30 16:22:33;;;;;;;0.20;0.20;;;;;;;21.71;31.78;76222.00;4961221;28;20113;-90
2024/03/30 16:27:40;;;;;;;0.20;0.20;;;;;;;21.38;32.90;76186.31;5035111;23;20113;-90
2024/03/30 16:30:07;;;;;;;0.20;0.20;;;;;;;21.40;33.08;76188.72;4960748;28;20030;-90
2024/03/30 16:32:32;;;;;;;0.20;0.20;;;;;;;21.27;34.26;76175.88;4961397;28;20095;-92
2024/03/30 18:36:38;;;;;;;0.20;0.20;;;;;;;20.10;34.86;76038.16;5527005;23;20109;-88
2024/03/30 18:39:03;;;;;;;0.20;0.20;;;;;;;20.16;33.38;76041.97;4982316;28;20042;-88
2024/03/30 18:51:54;;;;;;;0.20;0.20;;;;;;;20.39;33.45;76071.81;5757446;23;20039;-90
2024/03/30 18:54:19;;;;;;;0.20;0.20;;;;;;;20.23;33.18;76046.97;4968051;28;20509;-89
2024/03/30 18:59:23;;;;;;;0.20;0.20;;;;;;;20.37;32.77;76072.81;5158323;23;20054;-90
2024/03/30 19:12:10;;;;;;;0.20;0.20;;;;;;;20.32;33.46;76064.00;5200207;23;20089;-89
2024/03/30 19:14:36;;;;;;;0.20;0.20;;;;;;;20.15;34.00;76041.38;4957484;28;20094;-90
2024/03/30 19:17:01;;;;;;;0.20;0.20;;;;;;;20.40;33.26;76070.81;4958640;28;20026;-89
2024/03/30 19:19:27;;;;;;;0.20;0.20;;;;;;;20.27;33.72;76054.59;4958854;28;20121;-89
2024/03/30 19:21:53;;;;;;;0.20;0.20;;;;;;;20.20;34.18;76052.41;4958761;28;20470;-89
2024/03/30 19:24:18;;;;;;;0.20;0.20;;;;;;;19.97;35.19;76019.13;4947356;29;20023;-90
2024/03/30 19:26:47;;;;;;;0.20;0.20;;;;;;;19.79;35.55;76004.28;4940011;29;20016;-89
2024/03/30 19:29:13;;;;;;;0.20;0.20;;;;;;;19.84;35.62;76006.91;4938572;29;20019;-90
2024/03/30 19:31:40;;;;;;;0.20;0.20;;;;;;;19.69;34.81;75986.66;4950506;28;20098;-90
2024/03/30 19:34:07;;;;;;;0.20;0.20;;;;;;;19.86;35.07;76009.31;4957565;28;20021;-90
2024/03/30 19:36:34;;;;;;;0.20;0.20;;;;;;;19.80;36.06;75999.88;4958698;28;20082;-89
2024/03/30 19:38:59;;;;;;;0.20;0.20;;;;;;;19.74;35.37;75995.47;4958961;28;20026;-90
2024/03/30 19:41:25;;;;;;;0.20;0.20;;;;;;;19.67;35.17;75987.06;4957760;28;20128;-90
2024/03/30 19:43:50;;;;;;;0.20;0.20;;;;;;;19.73;34.78;75991.47;4958062;28;20051;-90
2024/03/30 19:46:16;;;;;;;0.20;0.20;;;;;;;19.68;34.81;75991.09;4958163;28;20022;-91
2024/03/30 19:48:42;;;;;;;0.20;0.20;;;;;;;19.84;34.95;76007.50;4957943;28;20110;-90
2024/03/30 19:51:08;;;;;;;0.20;0.20;;;;;;;19.60;35.75;75976.47;4958490;28;20007;-89
2024/03/30 19:53:34;;;;;;;0.20;0.20;;;;;;;19.74;35.61;75998.28;4957983;28;20128;-90
2024/03/30 19:56:00;;;;;;;0.20;0.20;;;;;;;19.59;36.17;75977.44;4958250;28;20524;-91
2024/03/30 19:58:26;;;;;;;0.20;0.20;;;;;;;19.40;36.36;75952.41;4958138;28;20065;-90
2024/03/30 20:01:02;;;;;;;0.20;0.20;;;;;;;19.45;35.90;75957.81;4958496;28;20023;-90
2024/03/30 20:03:27;;;;;;;0.20;0.20;;;;;;;19.45;35.98;75957.81;4958571;28;20051;-90
2024/03/30 20:05:53;;;;;;;0.20;0.20;;;;;;;19.48;36.24;75962.00;4958293;28;20450;-90
2024/03/30 20:08:18;;;;;;;0.20;0.20;;;;;;;19.50;35.84;75966.63;4956022;28;20070;-89
2024/03/30 20:10:43;;;;;;;0.20;0.20;;;;;;;19.49;36.31;75963.19;4957424;28;20143;-89
2024/03/30 20:16:00;;;;;;;0.20;0.20;;;;;;;19.46;36.29;75964.63;5004582;23;20058;-89
2024/03/30 20:18:29;;;;;;;;;;;;;;;19.54;35.58;75971.41;4956935;28;20053;-90
2024/03/30 20:20:55;;;;;;;0.20;0.20;;;;;;;19.48;36.01;75962.00;4973761;28;19921;-89
2024/03/30 20:23:22;;;;;;;0.20;0.20;;;;;;;19.37;35.80;75952.19;4959258;28;20041;-90
2024/03/30 20:31:09;;;;;;;0.20;0.20;;;;;;;19.31;35.36;75942.19;5110474;23;20059;-89
2024/03/30 20:33:36;;;;;;;0.20;0.20;;;;;;;19.26;36.19;75935.56;4976018;28;20438;-89
2024/03/30 20:36:07;;;;;;;0.20;0.20;;;;;;;19.33;36.22;75943.97;4957268;28;20019;-89
2024/03/30 20:38:33;;;;;;;0.20;0.20;;;;;;;19.51;35.53;75971.22;4957583;28;20498;-89
2024/03/30 20:41:07;;;;;;;0.20;0.20;;;;;;;19.37;36.62;75943.78;4957783;28;20030;-89
2024/03/30 20:43:40;;;;;;;0.20;0.20;;;;;;;19.37;36.37;75948.78;4941876;28;20035;-89
2024/03/30 20:48:53;;;;;;;0.20;0.20;;;;;;;19.47;35.92;75963.00;5017485;23;20069;-89
2024/03/30 20:51:19;;;;;;;0.20;0.20;;;;;;;19.46;35.77;75961.81;4961928;28;20030;-90
2024/03/30 20:53:45;;;;;;;0.20;0.20;;;;;;;19.58;35.39;75973.44;4946083;28;20122;-90
2024/03/30 20:56:10;;;;;;;0.20;0.20;;;;;;;19.77;34.88;75993.47;4968797;28;20065;-89
2024/03/30 20:58:39;;;;;;;0.20;0.20;;;;;;;19.83;35.06;76003.50;4991521;28;20065;-91
2024/03/30 21:03:41;;;;;;;0.20;0.20;;;;;;;19.75;35.24;75999.47;5230081;23;20050;-89
2024/03/30 21:06:10;;;;;;;0.20;0.20;;;;;;;19.74;36.00;75992.06;4992385;28;20055;-91
2024/03/30 21:08:36;;;;;;;0.20;0.20;;;;;;;19.62;35.59;75981.06;4999027;28;20053;-89
2024/03/30 21:11:02;;;;;;;0.20;0.20;;;;;;;19.57;35.98;75972.22;4982594;28;20026;-88
2024/03/30 21:13:27;;;;;;;0.20;0.20;;;;;;;19.54;36.16;75971.41;4980394;28;20536;-89
2024/03/30 21:16:00;;;;;;;0.20;0.20;;;;;;;19.57;35.49;75975.03;4980370;28;20029;-90
2024/03/30 21:21:16;;;;;;;0.20;0.20;;;;;;;19.62;35.55;75984.47;5146818;23;20117;-90
2024/03/30 23:39:35;;;;;;;0.20;0.20;;;;;;;20.03;38.08;76031.97;5418394;23;20051;-91
2024/03/30 23:42:00;;;;;;;0.20;0.20;;;;;;;20.06;37.96;76032.75;5618955;23;20043;-90
2024/03/30 23:49:38;;;;;;;0.20;0.20;;;;;;;20.13;38.68;76041.78;5841793;23;20109;-91
2024/03/30 23:52:06;;;;;;;0.20;0.20;;;;;;;20.05;38.69;76031.56;4961422;28;20035;-90
2024/03/30 23:57:19;;;;;;;0.20;0.20;;;;;;;19.91;39.25;76015.31;4983266;23;20138;-93
2024/03/30 23:59:44;;;;;;;0.20;0.20;;;;;;;19.82;38.97;76001.69;4957529;28;20057;-90
